sensor_id;sensor_type;location;lat;lon;timestamp;P1;durP1;ratioP1;P2;durP2;ratioP2
5085;SDS011;4715;51.660;7.082;2023-06-14T00:00:01;3.77;;;3.57;;
5085;SDS011;4715;51.660;7.082;2023-06-14T00:02:25;3.80;;;3.60;;
5085;SDS011;4715;51.660;7.082;2023-06-14T00:04:47;3.60;;;3.40;;
5085;SDS011;4715;51.660;7.082;2023-06-14T00:07:11;3.33;;;3.13;;
5085;SDS011;4715;51.660;7.082;2023-06-14T00:09:33;4.20;;;3.13;;
5085;SDS011;4715;51.660;7.082;2023-06-14T00:11:55;2.80;;;2.63;;
5085;SDS011;4715;51.660;7.082;2023-06-14T00:14:18;2.97;;;2.87;;
5085;SDS011;4715;51.660;7.082;2023-06-14T00:16:40;3.33;;;3.03;;
5085;SDS011;4715;51.660;7.082;2023-06-14T00:19:03;2.70;;;2.60;;
5085;SDS011;4715;51.660;7.082;2023-06-14T00:21:25;3.20;;;3.00;;
5085;SDS011;4715;51.660;7.082;2023-06-14T00:23:48;3.10;;;2.90;;
5085;SDS011;4715;51.660;7.082;2023-06-14T00:26:10;3.70;;;3.40;;
5085;SDS011;4715;51.660;7.082;2023-06-14T00:28:32;2.67;;;2.47;;
5085;SDS011;4715;51.660;7.082;2023-06-14T00:30:55;3.20;;;2.90;;
5085;SDS011;4715;51.660;7.082;2023-06-14T00:33:16;3.07;;;2.87;;
5085;SDS011;4715;51.660;7.082;2023-06-14T00:35:38;2.57;;;2.37;;
5085;SDS011;4715;51.660;7.082;2023-06-14T00:38:00;3.33;;;3.03;;
5085;SDS011;4715;51.660;7.082;2023-06-14T00:40:22;2.30;;;2.20;;
5085;SDS011;4715;51.660;7.082;2023-06-14T00:42:45;3.37;;;3.17;;
5085;SDS011;4715;51.660;7.082;2023-06-14T00:45:07;2.83;;;2.63;;
5085;SDS011;4715;51.660;7.082;2023-06-14T00:47:31;3.40;;;3.10;;
5085;SDS011;4715;51.660;7.082;2023-06-14T00:49:53;2.60;;;2.40;;
5085;SDS011;4715;51.660;7.082;2023-06-14T00:52:16;3.00;;;2.57;;
5085;SDS011;4715;51.660;7.082;2023-06-14T00:54:39;2.67;;;2.57;;
5085;SDS011;4715;51.660;7.082;2023-06-14T00:57:01;2.60;;;2.50;;
5085;SDS011;4715;51.660;7.082;2023-06-14T00:59:23;3.33;;;2.53;;
5085;SDS011;4715;51.660;7.082;2023-06-14T01:01:45;2.77;;;2.67;;
5085;SDS011;4715;51.660;7.082;2023-06-14T01:04:10;2.70;;;2.50;;
5085;SDS011;4715;51.660;7.082;2023-06-14T01:06:33;3.10;;;2.90;;
5085;SDS011;4715;51.660;7.082;2023-06-14T01:09:06;3.30;;;3.10;;
5085;SDS011;4715;51.660;7.082;2023-06-14T01:11:37;2.70;;;2.60;;
5085;SDS011;4715;51.660;7.082;2023-06-14T01:14:05;2.37;;;2.27;;
5085;SDS011;4715;51.660;7.082;2023-06-14T01:16:27;2.30;;;2.20;;
5085;SDS011;4715;51.660;7.082;2023-06-14T01:18:51;2.50;;;2.40;;
5085;SDS011;4715;51.660;7.082;2023-06-14T01:21:21;2.50;;;2.20;;
5085;SDS011;4715;51.660;7.082;2023-06-14T01:23:45;2.33;;;2.17;;
5085;SDS011;4715;51.660;7.082;2023-06-14T01:26:13;2.17;;;1.97;;
5085;SDS011;4715;51.660;7.082;2023-06-14T01:28:35;2.50;;;2.40;;
5085;SDS011;4715;51.660;7.082;2023-06-14T01:30:59;1.83;;;1.73;;
5085;SDS011;4715;51.660;7.082;2023-06-14T01:33:24;2.40;;;2.20;;
5085;SDS011;4715;51.660;7.082;2023-06-14T01:35:49;2.83;;;2.20;;
5085;SDS011;4715;51.660;7.082;2023-06-14T01:38:11;2.20;;;2.10;;
5085;SDS011;4715;51.660;7.082;2023-06-14T01:40:35;2.23;;;2.03;;
5085;SDS011;4715;51.660;7.082;2023-06-14T01:42:59;3.20;;;2.30;;
5085;SDS011;4715;51.660;7.082;2023-06-14T01:45:21;2.13;;;2.03;;
5085;SDS011;4715;51.660;7.082;2023-06-14T01:47:46;2.77;;;2.33;;
5085;SDS011;4715;51.660;7.082;2023-06-14T01:50:09;2.30;;;2.20;;
5085;SDS011;4715;51.660;7.082;2023-06-14T01:52:31;2.37;;;2.27;;
5085;SDS011;4715;51.660;7.082;2023-06-14T01:54:53;2.67;;;2.50;;
5085;SDS011;4715;51.660;7.082;2023-06-14T01:57:16;2.40;;;2.30;;
5085;SDS011;4715;51.660;7.082;2023-06-14T01:59:38;2.63;;;2.40;;
5085;SDS011;4715;51.660;7.082;2023-06-14T02:02:00;2.30;;;2.20;;
5085;SDS011;4715;51.660;7.082;2023-06-14T02:04:22;2.07;;;1.97;;
5085;SDS011;4715;51.660;7.082;2023-06-14T02:06:44;2.63;;;2.20;;
5085;SDS011;4715;51.660;7.082;2023-06-14T02:09:06;2.63;;;2.43;;
5085;SDS011;4715;51.660;7.082;2023-06-14T02:11:27;2.17;;;2.07;;
5085;SDS011;4715;51.660;7.082;2023-06-14T02:13:51;2.57;;;2.37;;
5085;SDS011;4715;51.660;7.082;2023-06-14T02:16:12;2.70;;;2.50;;
5085;SDS011;4715;51.660;7.082;2023-06-14T02:18:34;2.40;;;2.30;;
5085;SDS011;4715;51.660;7.082;2023-06-14T02:20:57;2.77;;;2.57;;
5085;SDS011;4715;51.660;7.082;2023-06-14T02:23:19;2.20;;;2.10;;
5085;SDS011;4715;51.660;7.082;2023-06-14T02:25:40;2.30;;;2.20;;
5085;SDS011;4715;51.660;7.082;2023-06-14T02:28:04;2.60;;;2.50;;
5085;SDS011;4715;51.660;7.082;2023-06-14T02:30:28;2.43;;;2.33;;
5085;SDS011;4715;51.660;7.082;2023-06-14T02:32:51;2.60;;;2.40;;
5085;SDS011;4715;51.660;7.082;2023-06-14T02:35:13;2.57;;;2.37;;
5085;SDS011;4715;51.660;7.082;2023-06-14T02:37:35;2.40;;;2.30;;
5085;SDS011;4715;51.660;7.082;2023-06-14T02:39:58;1.90;;;1.80;;
5085;SDS011;4715;51.660;7.082;2023-06-14T02:42:20;2.33;;;2.23;;
5085;SDS011;4715;51.660;7.082;2023-06-14T02:44:42;2.70;;;2.50;;
5085;SDS011;4715;51.660;7.082;2023-06-14T02:47:06;2.13;;;2.03;;
5085;SDS011;4715;51.660;7.082;2023-06-14T02:49:28;3.67;;;2.17;;
5085;SDS011;4715;51.660;7.082;2023-06-14T02:51:50;2.20;;;2.10;;
5085;SDS011;4715;51.660;7.082;2023-06-14T02:54:12;2.47;;;2.27;;
5085;SDS011;4715;51.660;7.082;2023-06-14T02:56:34;2.73;;;2.50;;
5085;SDS011;4715;51.660;7.082;2023-06-14T02:58:56;2.23;;;2.13;;
5085;SDS011;4715;51.660;7.082;2023-06-14T03:01:19;2.20;;;2.10;;
5085;SDS011;4715;51.660;7.082;2023-06-14T03:03:43;3.10;;;2.37;;
5085;SDS011;4715;51.660;7.082;2023-06-14T03:06:04;2.40;;;2.30;;
5085;SDS011;4715;51.660;7.082;2023-06-14T03:08:28;2.23;;;2.13;;
5085;SDS011;4715;51.660;7.082;2023-06-14T03:10:50;2.70;;;2.00;;
5085;SDS011;4715;51.660;7.082;2023-06-14T03:13:12;1.97;;;1.77;;
5085;SDS011;4715;51.660;7.082;2023-06-14T03:15:34;2.77;;;2.50;;
5085;SDS011;4715;51.660;7.082;2023-06-14T03:17:56;2.40;;;2.30;;
5085;SDS011;4715;51.660;7.082;2023-06-14T03:20:20;2.17;;;2.07;;
5085;SDS011;4715;51.660;7.082;2023-06-14T03:22:43;2.40;;;2.30;;
5085;SDS011;4715;51.660;7.082;2023-06-14T03:25:08;2.47;;;2.37;;
5085;SDS011;4715;51.660;7.082;2023-06-14T03:27:30;2.20;;;2.10;;
5085;SDS011;4715;51.660;7.082;2023-06-14T03:29:52;3.50;;;2.80;;
5085;SDS011;4715;51.660;7.082;2023-06-14T03:32:14;2.90;;;2.50;;
5085;SDS011;4715;51.660;7.082;2023-06-14T03:34:36;2.60;;;2.40;;
5085;SDS011;4715;51.660;7.082;2023-06-14T03:37:01;2.30;;;2.20;;
5085;SDS011;4715;51.660;7.082;2023-06-14T03:39:23;2.90;;;2.70;;
5085;SDS011;4715;51.660;7.082;2023-06-14T03:41:44;2.67;;;2.47;;
5085;SDS011;4715;51.660;7.082;2023-06-14T03:44:06;2.30;;;2.20;;
5085;SDS011;4715;51.660;7.082;2023-06-14T03:46:28;2.20;;;2.10;;
5085;SDS011;4715;51.660;7.082;2023-06-14T03:48:50;2.70;;;2.20;;
5085;SDS011;4715;51.660;7.082;2023-06-14T03:51:12;2.03;;;1.93;;
5085;SDS011;4715;51.660;7.082;2023-06-14T03:53:36;2.30;;;1.90;;
5085;SDS011;4715;51.660;7.082;2023-06-14T03:55:57;3.07;;;2.17;;
5085;SDS011;4715;51.660;7.082;2023-06-14T03:58:20;2.60;;;2.17;;
5085;SDS011;4715;51.660;7.082;2023-06-14T04:00:41;2.63;;;2.50;;
5085;SDS011;4715;51.660;7.082;2023-06-14T04:03:03;2.50;;;2.40;;
5085;SDS011;4715;51.660;7.082;2023-06-14T04:05:25;2.07;;;1.97;;
5085;SDS011;4715;51.660;7.082;2023-06-14T04:07:47;2.03;;;1.93;;
5085;SDS011;4715;51.660;7.082;2023-06-14T04:10:12;2.20;;;2.10;;
5085;SDS011;4715;51.660;7.082;2023-06-14T04:12:34;2.30;;;2.20;;
5085;SDS011;4715;51.660;7.082;2023-06-14T04:14:56;2.00;;;1.80;;
5085;SDS011;4715;51.660;7.082;2023-06-14T04:17:17;2.10;;;1.90;;
5085;SDS011;4715;51.660;7.082;2023-06-14T04:19:39;2.57;;;2.37;;
5085;SDS011;4715;51.660;7.082;2023-06-14T04:22:01;2.20;;;2.10;;
5085;SDS011;4715;51.660;7.082;2023-06-14T04:24:23;4.70;;;2.37;;
5085;SDS011;4715;51.660;7.082;2023-06-14T04:26:53;2.40;;;2.20;;
5085;SDS011;4715;51.660;7.082;2023-06-14T04:29:15;2.10;;;1.97;;
5085;SDS011;4715;51.660;7.082;2023-06-14T04:31:37;2.67;;;2.47;;
5085;SDS011;4715;51.660;7.082;2023-06-14T04:33:58;3.37;;;2.63;;
5085;SDS011;4715;51.660;7.082;2023-06-14T04:36:20;2.77;;;2.00;;
5085;SDS011;4715;51.660;7.082;2023-06-14T04:38:42;3.70;;;2.30;;
5085;SDS011;4715;51.660;7.082;2023-06-14T04:41:05;2.80;;;2.60;;
5085;SDS011;4715;51.660;7.082;2023-06-14T04:43:28;2.63;;;2.43;;
5085;SDS011;4715;51.660;7.082;2023-06-14T04:45:50;2.53;;;2.43;;
5085;SDS011;4715;51.660;7.082;2023-06-14T04:48:12;3.37;;;2.40;;
5085;SDS011;4715;51.660;7.082;2023-06-14T04:50:33;3.30;;;2.20;;
5085;SDS011;4715;51.660;7.082;2023-06-14T04:52:55;4.07;;;2.57;;
5085;SDS011;4715;51.660;7.082;2023-06-14T04:55:17;3.00;;;2.53;;
5085;SDS011;4715;51.660;7.082;2023-06-14T04:57:39;2.23;;;2.00;;
5085;SDS011;4715;51.660;7.082;2023-06-14T05:00:04;2.73;;;2.10;;
5085;SDS011;4715;51.660;7.082;2023-06-14T05:02:26;1.77;;;1.67;;
5085;SDS011;4715;51.660;7.082;2023-06-14T05:04:52;4.30;;;2.33;;
5085;SDS011;4715;51.660;7.082;2023-06-14T05:07:16;2.73;;;2.17;;
5085;SDS011;4715;51.660;7.082;2023-06-14T05:09:38;2.40;;;2.30;;
5085;SDS011;4715;51.660;7.082;2023-06-14T05:12:00;2.03;;;1.87;;
5085;SDS011;4715;51.660;7.082;2023-06-14T05:14:23;2.27;;;2.17;;
5085;SDS011;4715;51.660;7.082;2023-06-14T05:16:46;2.80;;;2.60;;
5085;SDS011;4715;51.660;7.082;2023-06-14T05:19:08;2.40;;;2.20;;
5085;SDS011;4715;51.660;7.082;2023-06-14T05:21:31;2.00;;;1.90;;
5085;SDS011;4715;51.660;7.082;2023-06-14T05:23:54;2.53;;;2.33;;
5085;SDS011;4715;51.660;7.082;2023-06-14T05:26:16;2.10;;;2.00;;
5085;SDS011;4715;51.660;7.082;2023-06-14T05:28:38;1.93;;;1.83;;
5085;SDS011;4715;51.660;7.082;2023-06-14T05:31:00;2.00;;;1.90;;
5085;SDS011;4715;51.660;7.082;2023-06-14T05:33:23;2.00;;;1.90;;
5085;SDS011;4715;51.660;7.082;2023-06-14T05:35:45;2.53;;;2.27;;
5085;SDS011;4715;51.660;7.082;2023-06-14T05:38:07;1.90;;;1.80;;
5085;SDS011;4715;51.660;7.082;2023-06-14T05:40:29;2.30;;;2.10;;
5085;SDS011;4715;51.660;7.082;2023-06-14T05:42:51;2.30;;;2.10;;
5085;SDS011;4715;51.660;7.082;2023-06-14T05:45:13;2.40;;;2.30;;
5085;SDS011;4715;51.660;7.082;2023-06-14T05:50:02;2.20;;;2.00;;
5085;SDS011;4715;51.660;7.082;2023-06-14T05:52:24;3.07;;;2.67;;
5085;SDS011;4715;51.660;7.082;2023-06-14T05:54:46;2.40;;;2.30;;
5085;SDS011;4715;51.660;7.082;2023-06-14T05:57:10;2.33;;;2.13;;
5085;SDS011;4715;51.660;7.082;2023-06-14T05:59:31;2.70;;;1.93;;
5085;SDS011;4715;51.660;7.082;2023-06-14T06:01:53;2.07;;;1.97;;
5085;SDS011;4715;51.660;7.082;2023-06-14T06:04:15;2.33;;;2.23;;
5085;SDS011;4715;51.660;7.082;2023-06-14T06:06:38;2.10;;;2.00;;
5085;SDS011;4715;51.660;7.082;2023-06-14T06:09:00;4.80;;;2.53;;
5085;SDS011;4715;51.660;7.082;2023-06-14T06:11:22;1.93;;;1.83;;
5085;SDS011;4715;51.660;7.082;2023-06-14T06:13:44;2.50;;;2.30;;
5085;SDS011;4715;51.660;7.082;2023-06-14T06:16:06;2.23;;;2.13;;
5085;SDS011;4715;51.660;7.082;2023-06-14T06:18:27;2.13;;;1.93;;
5085;SDS011;4715;51.660;7.082;2023-06-14T06:20:58;2.47;;;2.37;;
5085;SDS011;4715;51.660;7.082;2023-06-14T06:23:21;2.20;;;2.00;;
5085;SDS011;4715;51.660;7.082;2023-06-14T06:25:43;2.30;;;2.20;;
5085;SDS011;4715;51.660;7.082;2023-06-14T06:28:06;2.73;;;2.63;;
5085;SDS011;4715;51.660;7.082;2023-06-14T06:30:28;2.20;;;2.10;;
5085;SDS011;4715;51.660;7.082;2023-06-14T06:32:50;2.17;;;2.07;;
5085;SDS011;4715;51.660;7.082;2023-06-14T06:35:13;1.93;;;1.63;;
5085;SDS011;4715;51.660;7.082;2023-06-14T06:37:35;1.97;;;1.87;;
5085;SDS011;4715;51.660;7.082;2023-06-14T06:39:58;1.80;;;1.70;;
5085;SDS011;4715;51.660;7.082;2023-06-14T06:42:20;2.30;;;2.10;;
5085;SDS011;4715;51.660;7.082;2023-06-14T06:44:42;2.30;;;1.93;;
5085;SDS011;4715;51.660;7.082;2023-06-14T06:47:11;1.80;;;1.70;;
5085;SDS011;4715;51.660;7.082;2023-06-14T06:49:32;1.90;;;1.80;;
5085;SDS011;4715;51.660;7.082;2023-06-14T06:52:00;2.27;;;2.17;;
5085;SDS011;4715;51.660;7.082;2023-06-14T06:54:23;2.00;;;1.77;;
5085;SDS011;4715;51.660;7.082;2023-06-14T06:56:46;2.90;;;2.70;;
5085;SDS011;4715;51.660;7.082;2023-06-14T06:59:08;2.00;;;1.90;;
5085;SDS011;4715;51.660;7.082;2023-06-14T07:01:30;2.60;;;2.00;;
5085;SDS011;4715;51.660;7.082;2023-06-14T07:03:53;1.90;;;1.80;;
5085;SDS011;4715;51.660;7.082;2023-06-14T07:06:15;3.00;;;2.20;;
5085;SDS011;4715;51.660;7.082;2023-06-14T07:08:38;2.13;;;2.03;;
5085;SDS011;4715;51.660;7.082;2023-06-14T07:11:00;1.90;;;1.80;;
5085;SDS011;4715;51.660;7.082;2023-06-14T07:13:31;2.20;;;2.10;;
5085;SDS011;4715;51.660;7.082;2023-06-14T07:15:57;2.07;;;1.97;;
5085;SDS011;4715;51.660;7.082;2023-06-14T07:18:20;2.27;;;2.17;;
5085;SDS011;4715;51.660;7.082;2023-06-14T07:20:42;3.20;;;2.00;;
5085;SDS011;4715;51.660;7.082;2023-06-14T07:23:04;1.90;;;1.80;;
5085;SDS011;4715;51.660;7.082;2023-06-14T07:25:26;2.27;;;1.90;;
5085;SDS011;4715;51.660;7.082;2023-06-14T07:28:07;1.83;;;1.73;;
5085;SDS011;4715;51.660;7.082;2023-06-14T07:30:32;1.83;;;1.60;;
5085;SDS011;4715;51.660;7.082;2023-06-14T07:32:54;2.53;;;1.90;;
5085;SDS011;4715;51.660;7.082;2023-06-14T07:35:16;2.93;;;2.63;;
5085;SDS011;4715;51.660;7.082;2023-06-14T07:37:38;1.80;;;1.70;;
5085;SDS011;4715;51.660;7.082;2023-06-14T07:40:00;2.27;;;1.90;;
5085;SDS011;4715;51.660;7.082;2023-06-14T07:42:24;1.93;;;1.83;;
5085;SDS011;4715;51.660;7.082;2023-06-14T07:45:05;2.30;;;2.10;;
5085;SDS011;4715;51.660;7.082;2023-06-14T07:47:31;2.20;;;1.77;;
5085;SDS011;4715;51.660;7.082;2023-06-14T07:49:53;1.90;;;1.80;;
5085;SDS011;4715;51.660;7.082;2023-06-14T07:52:17;1.80;;;1.70;;
5085;SDS011;4715;51.660;7.082;2023-06-14T07:54:39;1.97;;;1.87;;
5085;SDS011;4715;51.660;7.082;2023-06-14T07:57:01;2.03;;;1.93;;
5085;SDS011;4715;51.660;7.082;2023-06-14T07:59:23;1.70;;;1.60;;
5085;SDS011;4715;51.660;7.082;2023-06-14T08:01:44;2.23;;;2.10;;
5085;SDS011;4715;51.660;7.082;2023-06-14T08:04:09;2.10;;;2.00;;
5085;SDS011;4715;51.660;7.082;2023-06-14T08:06:31;1.90;;;1.80;;
5085;SDS011;4715;51.660;7.082;2023-06-14T08:08:54;2.07;;;1.90;;
5085;SDS011;4715;51.660;7.082;2023-06-14T08:11:23;1.63;;;1.53;;
5085;SDS011;4715;51.660;7.082;2023-06-14T08:13:45;2.00;;;1.67;;
5085;SDS011;4715;51.660;7.082;2023-06-14T08:16:07;1.60;;;1.50;;
5085;SDS011;4715;51.660;7.082;2023-06-14T08:18:28;1.83;;;1.70;;
5085;SDS011;4715;51.660;7.082;2023-06-14T08:21:02;2.00;;;1.90;;
5085;SDS011;4715;51.660;7.082;2023-06-14T08:23:24;1.97;;;1.87;;
5085;SDS011;4715;51.660;7.082;2023-06-14T08:25:46;1.60;;;1.60;;
5085;SDS011;4715;51.660;7.082;2023-06-14T08:28:08;2.33;;;1.87;;
5085;SDS011;4715;51.660;7.082;2023-06-14T08:30:30;1.83;;;1.73;;
5085;SDS011;4715;51.660;7.082;2023-06-14T08:32:53;1.50;;;1.40;;
5085;SDS011;4715;51.660;7.082;2023-06-14T08:35:16;1.80;;;1.70;;
5085;SDS011;4715;51.660;7.082;2023-06-14T08:37:40;1.77;;;1.30;;
5085;SDS011;4715;51.660;7.082;2023-06-14T08:40:02;1.30;;;1.30;;
5085;SDS011;4715;51.660;7.082;2023-06-14T08:42:26;1.27;;;1.27;;
5085;SDS011;4715;51.660;7.082;2023-06-14T08:44:48;1.60;;;1.50;;
5085;SDS011;4715;51.660;7.082;2023-06-14T08:47:10;1.60;;;1.50;;
5085;SDS011;4715;51.660;7.082;2023-06-14T08:49:33;1.67;;;1.57;;
5085;SDS011;4715;51.660;7.082;2023-06-14T08:52:00;1.70;;;1.60;;
5085;SDS011;4715;51.660;7.082;2023-06-14T08:54:23;1.63;;;1.53;;
5085;SDS011;4715;51.660;7.082;2023-06-14T08:56:47;1.23;;;1.23;;
5085;SDS011;4715;51.660;7.082;2023-06-14T08:59:11;1.67;;;1.57;;
5085;SDS011;4715;51.660;7.082;2023-06-14T09:01:34;1.80;;;1.50;;
5085;SDS011;4715;51.660;7.082;2023-06-14T09:03:56;1.53;;;1.43;;
5085;SDS011;4715;51.660;7.082;2023-06-14T09:06:19;1.47;;;1.37;;
5085;SDS011;4715;51.660;7.082;2023-06-14T09:08:44;5.13;;;1.67;;
5085;SDS011;4715;51.660;7.082;2023-06-14T09:11:09;1.50;;;1.40;;
5085;SDS011;4715;51.660;7.082;2023-06-14T09:13:33;1.40;;;1.30;;
5085;SDS011;4715;51.660;7.082;2023-06-14T09:15:56;1.40;;;1.30;;
5085;SDS011;4715;51.660;7.082;2023-06-14T09:18:19;1.30;;;1.20;;
5085;SDS011;4715;51.660;7.082;2023-06-14T09:20:41;10.80;;;2.17;;
5085;SDS011;4715;51.660;7.082;2023-06-14T09:23:03;2.40;;;1.30;;
5085;SDS011;4715;51.660;7.082;2023-06-14T09:25:27;2.33;;;1.33;;
5085;SDS011;4715;51.660;7.082;2023-06-14T09:27:51;1.40;;;1.30;;
5085;SDS011;4715;51.660;7.082;2023-06-14T09:30:13;1.40;;;1.23;;
5085;SDS011;4715;51.660;7.082;2023-06-14T09:32:36;1.40;;;1.40;;
5085;SDS011;4715;51.660;7.082;2023-06-14T09:35:00;1.70;;;1.10;;
5085;SDS011;4715;51.660;7.082;2023-06-14T09:37:28;1.10;;;1.10;;
5085;SDS011;4715;51.660;7.082;2023-06-14T09:39:51;1.20;;;1.10;;
5085;SDS011;4715;51.660;7.082;2023-06-14T09:42:16;2.10;;;1.30;;
5085;SDS011;4715;51.660;7.082;2023-06-14T09:44:40;1.13;;;1.03;;
5085;SDS011;4715;51.660;7.082;2023-06-14T09:47:02;1.57;;;1.47;;
5085;SDS011;4715;51.660;7.082;2023-06-14T09:49:25;1.10;;;1.10;;
5085;SDS011;4715;51.660;7.082;2023-06-14T09:51:49;1.30;;;1.20;;
5085;SDS011;4715;51.660;7.082;2023-06-14T09:54:14;1.13;;;1.13;;
5085;SDS011;4715;51.660;7.082;2023-06-14T09:56:37;2.67;;;1.20;;
5085;SDS011;4715;51.660;7.082;2023-06-14T09:59:04;3.27;;;1.20;;
5085;SDS011;4715;51.660;7.082;2023-06-14T10:01:30;1.20;;;1.20;;
5085;SDS011;4715;51.660;7.082;2023-06-14T10:03:53;0.97;;;0.97;;
5085;SDS011;4715;51.660;7.082;2023-06-14T10:06:19;0.90;;;0.90;;
5085;SDS011;4715;51.660;7.082;2023-06-14T10:08:44;1.40;;;1.20;;
5085;SDS011;4715;51.660;7.082;2023-06-14T10:11:06;1.57;;;0.93;;
5085;SDS011;4715;51.660;7.082;2023-06-14T10:13:29;1.50;;;1.43;;
5085;SDS011;4715;51.660;7.082;2023-06-14T10:15:55;1.10;;;1.10;;
5085;SDS011;4715;51.660;7.082;2023-06-14T10:18:27;0.90;;;0.90;;
5085;SDS011;4715;51.660;7.082;2023-06-14T10:20:56;0.90;;;0.90;;
5085;SDS011;4715;51.660;7.082;2023-06-14T10:23:28;1.30;;;1.00;;
5085;SDS011;4715;51.660;7.082;2023-06-14T10:25:54;1.00;;;1.00;;
5085;SDS011;4715;51.660;7.082;2023-06-14T10:28:17;1.67;;;1.07;;
5085;SDS011;4715;51.660;7.082;2023-06-14T10:33:34;1.10;;;1.10;;
5085;SDS011;4715;51.660;7.082;2023-06-14T10:38:51;4.70;;;1.00;;
5085;SDS011;4715;51.660;7.082;2023-06-14T10:41:19;1.30;;;1.20;;
5085;SDS011;4715;51.660;7.082;2023-06-14T10:43:41;1.77;;;1.20;;
5085;SDS011;4715;51.660;7.082;2023-06-14T10:46:15;3.33;;;1.43;;
5085;SDS011;4715;51.660;7.082;2023-06-14T10:48:41;1.37;;;1.27;;
5085;SDS011;4715;51.660;7.082;2023-06-14T10:51:04;5.53;;;1.20;;
5085;SDS011;4715;51.660;7.082;2023-06-14T10:53:26;1.23;;;1.13;;
5085;SDS011;4715;51.660;7.082;2023-06-14T10:55:48;1.20;;;1.10;;
5085;SDS011;4715;51.660;7.082;2023-06-14T10:58:10;1.27;;;1.17;;
5085;SDS011;4715;51.660;7.082;2023-06-14T11:00:32;1.53;;;1.43;;
5085;SDS011;4715;51.660;7.082;2023-06-14T11:03:23;1.13;;;1.13;;
5085;SDS011;4715;51.660;7.082;2023-06-14T11:05:59;1.07;;;1.00;;
5085;SDS011;4715;51.660;7.082;2023-06-14T11:08:27;1.30;;;1.20;;
5085;SDS011;4715;51.660;7.082;2023-06-14T11:11:05;1.10;;;1.10;;
5085;SDS011;4715;51.660;7.082;2023-06-14T11:13:29;1.10;;;1.10;;
5085;SDS011;4715;51.660;7.082;2023-06-14T11:15:51;1.53;;;1.43;;
5085;SDS011;4715;51.660;7.082;2023-06-14T11:18:15;1.37;;;1.37;;
5085;SDS011;4715;51.660;7.082;2023-06-14T11:20:37;1.50;;;1.40;;
5085;SDS011;4715;51.660;7.082;2023-06-14T11:23:02;1.50;;;1.40;;
5085;SDS011;4715;51.660;7.082;2023-06-14T11:25:25;1.10;;;1.10;;
5085;SDS011;4715;51.660;7.082;2023-06-14T11:27:49;1.40;;;1.30;;
5085;SDS011;4715;51.660;7.082;2023-06-14T11:30:12;1.70;;;1.60;;
5085;SDS011;4715;51.660;7.082;2023-06-14T11:32:34;1.30;;;1.20;;
5085;SDS011;4715;51.660;7.082;2023-06-14T11:34:56;1.27;;;1.13;;
5085;SDS011;4715;51.660;7.082;2023-06-14T11:37:19;1.37;;;1.27;;
5085;SDS011;4715;51.660;7.082;2023-06-14T11:39:44;2.63;;;1.37;;
5085;SDS011;4715;51.660;7.082;2023-06-14T11:42:06;1.50;;;1.40;;
5085;SDS011;4715;51.660;7.082;2023-06-14T11:44:28;1.20;;;1.20;;
5085;SDS011;4715;51.660;7.082;2023-06-14T11:46:50;1.27;;;1.20;;
5085;SDS011;4715;51.660;7.082;2023-06-14T11:49:12;1.30;;;1.20;;
5085;SDS011;4715;51.660;7.082;2023-06-14T11:51:34;1.30;;;1.23;;
5085;SDS011;4715;51.660;7.082;2023-06-14T11:53:56;1.87;;;1.63;;
5085;SDS011;4715;51.660;7.082;2023-06-14T11:56:21;1.30;;;1.30;;
5085;SDS011;4715;51.660;7.082;2023-06-14T11:58:43;1.13;;;1.13;;
5085;SDS011;4715;51.660;7.082;2023-06-14T12:01:05;1.20;;;1.20;;
5085;SDS011;4715;51.660;7.082;2023-06-14T12:03:27;1.63;;;1.10;;
5085;SDS011;4715;51.660;7.082;2023-06-14T12:05:48;1.17;;;1.07;;
5085;SDS011;4715;51.660;7.082;2023-06-14T12:08:11;1.50;;;1.40;;
5085;SDS011;4715;51.660;7.082;2023-06-14T12:10:40;1.57;;;1.47;;
5085;SDS011;4715;51.660;7.082;2023-06-14T12:13:05;1.50;;;1.40;;
5085;SDS011;4715;51.660;7.082;2023-06-14T12:15:29;1.47;;;1.40;;
5085;SDS011;4715;51.660;7.082;2023-06-14T12:17:52;1.30;;;1.30;;
5085;SDS011;4715;51.660;7.082;2023-06-14T12:20:15;1.60;;;1.50;;
5085;SDS011;4715;51.660;7.082;2023-06-14T12:22:39;1.63;;;1.53;;
5085;SDS011;4715;51.660;7.082;2023-06-14T12:25:11;1.60;;;1.50;;
5085;SDS011;4715;51.660;7.082;2023-06-14T12:27:47;1.90;;;1.80;;
5085;SDS011;4715;51.660;7.082;2023-06-14T12:30:11;2.23;;;1.90;;
5085;SDS011;4715;51.660;7.082;2023-06-14T12:32:34;1.20;;;1.10;;
5085;SDS011;4715;51.660;7.082;2023-06-14T12:34:56;1.53;;;1.37;;
5085;SDS011;4715;51.660;7.082;2023-06-14T12:37:18;1.80;;;1.70;;
5085;SDS011;4715;51.660;7.082;2023-06-14T12:39:40;2.07;;;1.97;;
5085;SDS011;4715;51.660;7.082;2023-06-14T12:42:04;1.30;;;1.20;;
5085;SDS011;4715;51.660;7.082;2023-06-14T12:44:26;1.63;;;1.53;;
5085;SDS011;4715;51.660;7.082;2023-06-14T12:46:49;1.70;;;1.60;;
5085;SDS011;4715;51.660;7.082;2023-06-14T12:49:13;2.60;;;1.57;;
5085;SDS011;4715;51.660;7.082;2023-06-14T12:51:35;1.33;;;1.33;;
5085;SDS011;4715;51.660;7.082;2023-06-14T12:54:14;1.93;;;1.70;;
5085;SDS011;4715;51.660;7.082;2023-06-14T12:56:37;1.60;;;1.50;;
5085;SDS011;4715;51.660;7.082;2023-06-14T12:59:01;1.90;;;1.80;;
5085;SDS011;4715;51.660;7.082;2023-06-14T13:01:23;4.50;;;1.83;;
5085;SDS011;4715;51.660;7.082;2023-06-14T13:03:46;1.70;;;1.60;;
5085;SDS011;4715;51.660;7.082;2023-06-14T13:06:09;1.80;;;1.70;;
5085;SDS011;4715;51.660;7.082;2023-06-14T13:08:31;1.60;;;1.50;;
5085;SDS011;4715;51.660;7.082;2023-06-14T13:10:53;1.57;;;1.47;;
5085;SDS011;4715;51.660;7.082;2023-06-14T13:13:15;2.40;;;1.67;;
5085;SDS011;4715;51.660;7.082;2023-06-14T13:15:37;2.87;;;1.70;;
5085;SDS011;4715;51.660;7.082;2023-06-14T13:17:59;1.70;;;1.60;;
5085;SDS011;4715;51.660;7.082;2023-06-14T13:20:24;2.10;;;1.30;;
5085;SDS011;4715;51.660;7.082;2023-06-14T13:22:46;2.00;;;1.87;;
5085;SDS011;4715;51.660;7.082;2023-06-14T13:25:08;4.40;;;2.47;;
5085;SDS011;4715;51.660;7.082;2023-06-14T13:27:30;1.60;;;1.50;;
5085;SDS011;4715;51.660;7.082;2023-06-14T13:29:52;1.80;;;1.70;;
5085;SDS011;4715;51.660;7.082;2023-06-14T13:32:15;1.80;;;1.70;;
5085;SDS011;4715;51.660;7.082;2023-06-14T13:34:37;6.43;;;1.90;;
5085;SDS011;4715;51.660;7.082;2023-06-14T13:37:00;1.67;;;1.57;;
5085;SDS011;4715;51.660;7.082;2023-06-14T13:39:22;1.93;;;1.83;;
5085;SDS011;4715;51.660;7.082;2023-06-14T13:41:44;1.83;;;1.73;;
5085;SDS011;4715;51.660;7.082;2023-06-14T13:44:08;2.03;;;1.93;;
5085;SDS011;4715;51.660;7.082;2023-06-14T13:46:31;1.77;;;1.67;;
5085;SDS011;4715;51.660;7.082;2023-06-14T13:48:53;1.93;;;1.83;;
5085;SDS011;4715;51.660;7.082;2023-06-14T13:51:14;1.80;;;1.70;;
5085;SDS011;4715;51.660;7.082;2023-06-14T13:53:39;2.13;;;2.03;;
5085;SDS011;4715;51.660;7.082;2023-06-14T13:56:01;2.17;;;1.97;;
5085;SDS011;4715;51.660;7.082;2023-06-14T13:58:23;1.40;;;1.40;;
5085;SDS011;4715;51.660;7.082;2023-06-14T14:00:45;1.80;;;1.70;;
5085;SDS011;4715;51.660;7.082;2023-06-14T14:03:07;1.60;;;1.50;;
5085;SDS011;4715;51.660;7.082;2023-06-14T14:05:29;1.77;;;1.67;;
5085;SDS011;4715;51.660;7.082;2023-06-14T14:07:51;1.70;;;1.60;;
5085;SDS011;4715;51.660;7.082;2023-06-14T14:10:14;1.97;;;1.87;;
5085;SDS011;4715;51.660;7.082;2023-06-14T14:12:36;1.63;;;1.53;;
5085;SDS011;4715;51.660;7.082;2023-06-14T14:14:58;1.83;;;1.73;;
5085;SDS011;4715;51.660;7.082;2023-06-14T14:17:21;1.93;;;1.83;;
5085;SDS011;4715;51.660;7.082;2023-06-14T14:19:43;1.97;;;1.87;;
5085;SDS011;4715;51.660;7.082;2023-06-14T14:22:06;1.80;;;1.70;;
5085;SDS011;4715;51.660;7.082;2023-06-14T14:24:28;2.10;;;2.00;;
5085;SDS011;4715;51.660;7.082;2023-06-14T14:26:51;2.10;;;2.00;;
5085;SDS011;4715;51.660;7.082;2023-06-14T14:29:13;2.07;;;1.97;;
5085;SDS011;4715;51.660;7.082;2023-06-14T14:31:36;2.47;;;1.83;;
5085;SDS011;4715;51.660;7.082;2023-06-14T14:33:57;2.27;;;2.07;;
5085;SDS011;4715;51.660;7.082;2023-06-14T14:36:19;1.90;;;1.80;;
5085;SDS011;4715;51.660;7.082;2023-06-14T14:38:41;2.00;;;1.57;;
5085;SDS011;4715;51.660;7.082;2023-06-14T14:41:03;1.93;;;1.83;;
5085;SDS011;4715;51.660;7.082;2023-06-14T14:43:27;1.90;;;1.80;;
5085;SDS011;4715;51.660;7.082;2023-06-14T14:45:52;2.33;;;1.93;;
5085;SDS011;4715;51.660;7.082;2023-06-14T14:48:14;3.73;;;2.60;;
5085;SDS011;4715;51.660;7.082;2023-06-14T14:50:36;2.17;;;2.03;;
5085;SDS011;4715;51.660;7.082;2023-06-14T14:52:58;1.80;;;1.70;;
5085;SDS011;4715;51.660;7.082;2023-06-14T14:55:20;1.93;;;1.83;;
5085;SDS011;4715;51.660;7.082;2023-06-14T14:57:42;1.60;;;1.50;;